createdAt,value
2022-12-11T00:00:14.037Z,95.33
2022-12-11T00:01:14.039Z,95.23
2022-12-11T00:02:14.056Z,95.17
2022-12-11T00:03:16.098Z,95.06
2022-12-11T00:04:14.004Z,94.95
2022-12-11T00:05:13.976Z,94.85
2022-12-11T00:06:13.993Z,94.74
2022-12-11T00:07:13.967Z,94.64
2022-12-11T00:08:14.082Z,94.54
2022-12-11T00:09:13.935Z,94.54
2022-12-11T00:10:13.935Z,94.64
2022-12-11T00:11:13.916Z,94.54
2022-12-11T00:12:13.926Z,94.54
2022-12-11T00:13:13.902Z,94.64
2022-12-11T00:14:13.908Z,94.64
2022-12-11T00:15:14.013Z,94.64
2022-12-11T00:16:13.905Z,94.54
2022-12-11T00:17:13.855Z,94.54
2022-12-11T00:18:13.866Z,94.54
2022-12-11T00:19:13.836Z,94.64
2022-12-11T00:20:13.827Z,94.85
2022-12-11T00:21:13.813Z,94.95
2022-12-11T00:22:13.810Z,95.06
2022-12-11T00:23:13.796Z,95.17
2022-12-11T00:24:13.807Z,95.12
2022-12-11T00:25:13.879Z,95.12
2022-12-11T00:26:13.779Z,95.23
2022-12-11T00:27:13.755Z,95.23
2022-12-11T00:28:13.748Z,95.23
2022-12-11T00:29:13.733Z,95.33
2022-12-11T00:30:13.744Z,95.33
2022-12-11T00:31:13.709Z,95.33
2022-12-11T00:32:13.776Z,95.29
2022-12-11T00:33:13.696Z,95.29
2022-12-11T00:34:13.698Z,95.18
2022-12-11T00:35:13.935Z,95.07
2022-12-11T00:36:13.666Z,95.07
2022-12-11T00:37:13.793Z,95.07
2022-12-11T00:38:13.650Z,95.18
2022-12-11T00:39:13.635Z,95.18
2022-12-11T00:40:13.641Z,95.18
2022-12-11T00:41:13.617Z,95.18
2022-12-11T00:42:13.599Z,95.29
2022-12-11T00:43:13.585Z,95.14
2022-12-11T00:44:13.597Z,95.14
2022-12-11T00:45:13.719Z,95.14
2022-12-11T00:46:13.581Z,95.14
2022-12-11T00:47:13.546Z,95.14
2022-12-11T00:48:13.537Z,95.14
2022-12-11T00:49:13.524Z,95.14
2022-12-11T00:50:13.526Z,95.25
2022-12-11T00:51:13.507Z,95.25
2022-12-11T00:52:13.517Z,95.20
2022-12-11T00:53:13.483Z,95.09
2022-12-11T00:54:13.477Z,95.20
2022-12-11T00:55:13.477Z,95.20
2022-12-11T00:56:13.456Z,95.09
2022-12-11T00:57:13.465Z,95.09
2022-12-11T00:58:13.436Z,95.09
2022-12-11T00:59:13.426Z,95.09
2022-12-11T01:00:13.418Z,95.09
2022-12-11T01:01:13.461Z,95.09
2022-12-11T01:02:13.394Z,95.09
2022-12-11T01:03:13.495Z,94.99
2022-12-11T01:04:13.377Z,94.89
2022-12-11T01:05:13.556Z,94.78
2022-12-11T01:06:13.366Z,94.78
2022-12-11T01:07:13.337Z,94.68
2022-12-11T01:08:13.398Z,94.64
2022-12-11T01:09:13.335Z,94.64
2022-12-11T01:10:13.376Z,94.53
2022-12-11T01:11:13.307Z,94.53
2022-12-11T01:12:13.296Z,94.53
2022-12-11T01:13:13.294Z,94.53
2022-12-11T01:14:13.272Z,94.53
2022-12-11T01:15:13.445Z,94.64
2022-12-11T01:16:13.308Z,94.64
2022-12-11T01:17:13.236Z,94.53
2022-12-11T01:18:13.247Z,94.53
2022-12-11T01:19:13.215Z,94.42
2022-12-11T01:20:13.209Z,94.27
2022-12-11T01:21:13.197Z,94.17
2022-12-11T01:22:13.214Z,94.07
2022-12-11T01:23:13.233Z,94.07
2022-12-11T01:24:13.185Z,94.07
2022-12-11T01:25:13.229Z,93.96
2022-12-11T01:26:13.146Z,93.96
2022-12-11T01:27:13.129Z,93.96
2022-12-11T01:28:13.136Z,93.96
2022-12-11T01:29:13.126Z,93.96
2022-12-11T01:30:13.106Z,93.96
2022-12-11T01:31:13.125Z,93.96
2022-12-11T01:32:13.098Z,93.96
2022-12-11T01:33:13.079Z,93.96
2022-12-11T01:34:13.082Z,93.96
2022-12-11T01:35:13.394Z,93.86
2022-12-11T01:36:13.047Z,93.86
2022-12-11T01:37:13.047Z,93.86
2022-12-11T01:38:13.026Z,93.86
2022-12-11T01:39:13.019Z,93.76
2022-12-11T01:40:13.005Z,93.76
2022-12-11T01:41:12.987Z,93.76
2022-12-11T01:42:13.005Z,93.65
2022-12-11T01:43:12.968Z,93.65
2022-12-11T01:44:12.966Z,93.54
2022-12-11T01:45:13.084Z,93.44
2022-12-11T01:46:13.025Z,93.54
2022-12-11T01:47:12.928Z,93.65
2022-12-11T01:48:12.937Z,93.61
2022-12-11T01:49:12.916Z,93.61
2022-12-11T01:50:12.898Z,93.71
2022-12-11T01:51:12.885Z,93.71
2022-12-11T01:52:12.877Z,93.71
2022-12-11T01:53:12.867Z,93.71
2022-12-11T01:54:12.879Z,93.61
2022-12-11T01:55:12.960Z,93.61
2022-12-11T01:56:12.849Z,93.50
2022-12-11T01:57:12.825Z,93.50
2022-12-11T01:58:12.821Z,93.50
2022-12-11T01:59:12.831Z,93.50
2022-12-11T02:00:12.800Z,93.61
2022-12-11T02:01:12.830Z,93.61
2022-12-11T02:02:12.796Z,93.50
2022-12-11T02:03:12.764Z,93.40
2022-12-11T02:04:12.768Z,93.19
2022-12-11T02:05:13.121Z,93.19
2022-12-11T02:06:12.748Z,93.08
2022-12-11T02:07:12.731Z,92.98
2022-12-11T02:08:12.781Z,92.88
2022-12-11T02:09:12.707Z,92.77
2022-12-11T02:10:12.697Z,92.66
2022-12-11T02:11:12.701Z,92.66
2022-12-11T02:12:12.672Z,92.56
2022-12-11T02:13:12.665Z,92.46
2022-12-11T02:14:12.648Z,92.46
2022-12-11T02:15:12.868Z,92.46
2022-12-11T02:16:12.689Z,92.56
2022-12-11T02:17:12.638Z,92.52
2022-12-11T02:18:12.621Z,92.31
2022-12-11T02:19:12.598Z,92.10
2022-12-11T02:20:12.587Z,92.00
2022-12-11T02:21:12.578Z,92.00
2022-12-11T02:22:12.567Z,92.00
2022-12-11T02:23:12.573Z,92.10
2022-12-11T02:24:12.550Z,92.10
2022-12-11T02:25:12.814Z,91.89
2022-12-11T02:26:12.528Z,91.89
2022-12-11T02:27:12.536Z,92.10
2022-12-11T02:28:12.525Z,92.21
2022-12-11T02:29:12.507Z,92.31
2022-12-11T02:30:12.488Z,92.31
2022-12-11T02:31:12.533Z,92.31
2022-12-11T02:32:12.468Z,92.21
2022-12-11T02:33:12.448Z,92.21
2022-12-11T02:34:12.477Z,92.10
2022-12-11T02:35:12.802Z,92.00
2022-12-11T02:36:12.427Z,91.79
2022-12-11T02:37:12.428Z,91.58
2022-12-11T02:38:12.408Z,91.58
2022-12-11T02:39:12.408Z,91.58
2022-12-11T02:40:33.391Z,91.58
2022-12-11T02:41:12.422Z,91.27
2022-12-11T02:42:12.371Z,91.16
2022-12-11T02:43:12.376Z,91.16
2022-12-11T02:44:12.374Z,91.27
2022-12-11T02:45:12.604Z,91.27
2022-12-11T02:46:12.411Z,91.27
2022-12-11T02:47:12.326Z,90.95
2022-12-11T02:48:12.332Z,90.95
2022-12-11T02:49:12.300Z,91.06
2022-12-11T02:50:12.281Z,91.16
2022-12-11T02:51:12.304Z,91.27
2022-12-11T02:52:12.268Z,91.27
2022-12-11T02:53:12.264Z,91.47
2022-12-11T02:54:12.240Z,91.58
2022-12-11T02:55:12.648Z,91.79
2022-12-11T02:56:12.242Z,91.79
2022-12-11T02:57:12.251Z,91.69
2022-12-11T02:58:12.231Z,91.58
2022-12-11T02:59:12.194Z,91.47
2022-12-11T03:00:12.223Z,91.37
2022-12-11T03:01:12.206Z,91.37
2022-12-11T03:02:12.234Z,91.37
2022-12-11T03:03:12.172Z,91.37
2022-12-11T03:04:12.141Z,91.47
2022-12-11T03:05:12.506Z,91.37
2022-12-11T03:06:12.164Z,91.27
2022-12-11T03:07:12.263Z,91.27
2022-12-11T03:08:12.137Z,91.37
2022-12-11T03:09:12.102Z,91.47
2022-12-11T03:10:12.092Z,91.58
2022-12-11T03:11:12.071Z,91.47
2022-12-11T03:12:12.094Z,91.37
2022-12-11T03:13:12.061Z,91.27
2022-12-11T03:14:12.032Z,91.16
2022-12-11T03:15:12.265Z,91.06
2022-12-11T03:16:12.078Z,90.95
2022-12-11T03:17:12.020Z,90.85
2022-12-11T03:18:12.021Z,90.75
2022-12-11T03:19:12.012Z,90.91
2022-12-11T03:20:11.981Z,91.12
2022-12-11T03:21:11.969Z,91.12
2022-12-11T03:22:11.974Z,90.64
2022-12-11T03:23:11.984Z,90.43
2022-12-11T03:24:11.936Z,90.53
2022-12-11T03:25:12.212Z,90.53
2022-12-11T03:26:11.921Z,90.64
2022-12-11T03:27:11.911Z,90.64
2022-12-11T03:28:11.891Z,90.75
2022-12-11T03:29:11.900Z,90.95
2022-12-11T03:30:11.870Z,91.06
2022-12-11T03:31:11.937Z,90.95
2022-12-11T03:32:11.853Z,91.06
2022-12-11T03:33:11.867Z,91.12
2022-12-11T03:34:11.840Z,91.12
2022-12-11T03:35:12.270Z,91.22
2022-12-11T03:36:11.823Z,91.12
2022-12-11T03:37:11.811Z,91.12
2022-12-11T03:38:11.825Z,90.91
2022-12-11T03:39:11.792Z,91.02
2022-12-11T03:40:11.781Z,91.12
2022-12-11T03:41:11.791Z,91.12
2022-12-11T03:42:11.743Z,91.12
2022-12-11T03:43:11.743Z,91.22
2022-12-11T03:44:11.732Z,91.02
2022-12-11T03:45:11.991Z,90.70
2022-12-11T03:46:11.768Z,90.70
2022-12-11T03:47:11.718Z,90.70
2022-12-11T03:48:11.691Z,90.60
2022-12-11T03:49:11.683Z,90.70
2022-12-11T03:50:11.674Z,90.70
2022-12-11T03:51:11.674Z,90.70
2022-12-11T03:52:11.642Z,90.60
2022-12-11T03:53:11.634Z,90.50
2022-12-11T03:54:11.629Z,90.28
2022-12-11T03:55:12.122Z,90.18
2022-12-11T03:56:11.623Z,90.18
2022-12-11T03:57:11.631Z,90.28
2022-12-11T03:58:11.582Z,90.39
2022-12-11T03:59:11.589Z,90.60
2022-12-11T04:00:11.596Z,90.70
2022-12-11T04:01:11.552Z,90.70
2022-12-11T04:02:11.562Z,90.60
2022-12-11T04:03:13.864Z,90.70
2022-12-11T04:04:11.548Z,90.81
2022-12-11T04:05:11.896Z,90.91
2022-12-11T04:06:11.531Z,90.91
2022-12-11T04:07:11.492Z,90.85
2022-12-11T04:08:11.559Z,90.85
2022-12-11T04:09:11.482Z,90.95
2022-12-11T04:10:11.473Z,91.16
2022-12-11T04:11:11.521Z,91.16
2022-12-11T04:12:11.443Z,91.27
2022-12-11T04:13:11.750Z,91.37
2022-12-11T04:14:11.419Z,91.47
2022-12-11T04:15:11.634Z,91.58
2022-12-11T04:16:11.441Z,91.58
2022-12-11T04:17:11.403Z,91.69
2022-12-11T04:18:11.380Z,91.79
2022-12-11T04:19:11.362Z,91.89
2022-12-11T04:20:11.373Z,91.79
2022-12-11T04:21:11.342Z,91.58
2022-12-11T04:22:11.360Z,91.47
2022-12-11T04:23:11.323Z,91.37
2022-12-11T04:24:11.343Z,91.27
2022-12-11T04:25:11.666Z,91.16
2022-12-11T04:26:11.313Z,91.37
2022-12-11T04:27:11.301Z,91.47
2022-12-11T04:28:11.283Z,91.58
2022-12-11T04:29:11.293Z,91.58
2022-12-11T04:30:12.217Z,91.58
2022-12-11T04:31:11.290Z,91.69
2022-12-11T04:32:11.243Z,91.47
2022-12-11T04:33:11.237Z,91.47
2022-12-11T04:34:11.250Z,91.37
2022-12-11T04:35:11.497Z,91.37
2022-12-11T04:36:11.203Z,91.27
2022-12-11T04:37:11.193Z,90.85
2022-12-11T04:38:11.172Z,90.64
2022-12-11T04:39:11.174Z,90.12
2022-12-11T04:40:11.154Z,89.81
2022-12-11T04:41:11.145Z,89.59
2022-12-11T04:42:11.142Z,89.49
2022-12-11T04:43:11.144Z,89.49
2022-12-11T04:44:11.113Z,89.39
2022-12-11T04:45:11.485Z,89.01
2022-12-11T04:46:11.176Z,89.01
2022-12-11T04:47:11.092Z,89.11
2022-12-11T04:48:11.100Z,88.87
2022-12-11T04:49:11.054Z,88.76
2022-12-11T04:50:11.073Z,88.76
2022-12-11T04:51:11.043Z,88.13
2022-12-11T04:52:11.035Z,87.86
2022-12-11T04:53:11.014Z,87.96
2022-12-11T04:54:11.023Z,87.76
2022-12-11T04:55:11.334Z,87.76
2022-12-11T04:56:10.995Z,87.96
2022-12-11T04:57:10.993Z,88.17
2022-12-11T04:58:10.984Z,88.28
2022-12-11T04:59:10.971Z,88.34
2022-12-11T05:00:10.967Z,88.65
2022-12-11T05:01:11.063Z,88.65
2022-12-11T05:02:10.923Z,88.34
2022-12-11T05:03:10.984Z,87.93
2022-12-11T05:04:10.913Z,87.30
2022-12-11T05:05:11.213Z,86.88
2022-12-11T05:06:10.922Z,86.99
2022-12-11T05:07:10.894Z,87.23
2022-12-11T05:08:10.914Z,87.45
2022-12-11T05:09:10.875Z,87.55
2022-12-11T05:10:10.861Z,87.65
2022-12-11T05:11:10.834Z,87.65
2022-12-11T05:12:10.823Z,87.76
2022-12-11T05:13:10.824Z,87.82
2022-12-11T05:14:10.803Z,87.65
2022-12-11T05:15:11.104Z,87.30
2022-12-11T05:16:10.837Z,87.30
2022-12-11T05:17:10.851Z,87.30
2022-12-11T05:18:10.775Z,87.34
2022-12-11T05:19:10.780Z,87.45
2022-12-11T05:20:10.743Z,87.55
2022-12-11T05:21:10.726Z,87.55
2022-12-11T05:22:10.742Z,87.55
2022-12-11T05:23:10.714Z,87.65
2022-12-11T05:24:10.693Z,87.96
2022-12-11T05:25:10.999Z,88.28
2022-12-11T05:26:10.673Z,88.39
2022-12-11T05:27:10.671Z,88.74
2022-12-11T05:28:10.654Z,88.84
2022-12-11T05:29:10.653Z,88.84
2022-12-11T05:30:10.644Z,88.84
2022-12-11T05:31:10.769Z,89.05
2022-12-11T05:32:10.634Z,89.26
2022-12-11T05:33:10.598Z,89.58
2022-12-11T05:34:10.609Z,89.68
2022-12-11T05:35:10.771Z,89.78
2022-12-11T05:36:10.584Z,89.68
2022-12-11T05:37:10.720Z,89.68
2022-12-11T05:38:10.581Z,89.58
2022-12-11T05:39:10.554Z,89.68
2022-12-11T05:40:10.534Z,89.89
2022-12-11T05:41:10.514Z,90.09
2022-12-11T05:42:10.626Z,90.20
2022-12-11T05:43:10.513Z,90.45
2022-12-11T05:44:10.517Z,90.66
2022-12-11T05:45:10.702Z,90.77
2022-12-11T05:46:10.551Z,90.77
2022-12-11T05:47:10.454Z,90.97
2022-12-11T05:48:10.485Z,91.08
2022-12-11T05:49:10.445Z,91.18
2022-12-11T05:50:10.434Z,91.33
2022-12-11T05:51:10.424Z,91.54
2022-12-11T05:52:10.432Z,91.54
2022-12-11T05:53:10.431Z,91.75
2022-12-11T05:54:10.384Z,91.85
2022-12-11T05:55:10.667Z,91.75
2022-12-11T05:56:10.373Z,91.75
2022-12-11T05:57:10.364Z,91.85
2022-12-11T05:58:10.385Z,92.06
2022-12-11T05:59:10.353Z,92.16
2022-12-11T06:00:10.325Z,92.27
2022-12-11T06:01:10.313Z,92.38
2022-12-11T06:02:10.431Z,92.48
2022-12-11T06:03:10.471Z,92.48
2022-12-11T06:04:10.317Z,92.52
2022-12-11T06:05:10.621Z,92.73
2022-12-11T06:06:10.289Z,92.94
2022-12-11T06:07:10.934Z,93.15
2022-12-11T06:08:10.344Z,93.26
2022-12-11T06:09:10.266Z,93.26
2022-12-11T06:10:10.236Z,93.36
2022-12-11T06:11:10.223Z,93.36
2022-12-11T06:12:10.217Z,93.46
2022-12-11T06:13:10.187Z,93.46
2022-12-11T06:14:10.195Z,93.57
2022-12-11T06:15:10.595Z,93.78
2022-12-11T06:16:10.225Z,93.99
2022-12-11T06:17:10.144Z,94.09
2022-12-11T06:18:10.174Z,94.03
2022-12-11T06:19:10.215Z,94.03
2022-12-11T06:20:10.128Z,94.13
2022-12-11T06:21:10.134Z,94.03
2022-12-11T06:22:10.107Z,94.03
2022-12-11T06:23:10.104Z,94.03
2022-12-11T06:24:10.112Z,94.03
2022-12-11T06:25:10.355Z,94.24
2022-12-11T06:26:10.065Z,94.45
2022-12-11T06:27:10.058Z,94.49
2022-12-11T06:28:10.045Z,94.70
2022-12-11T06:29:12.973Z,95.23
2022-12-11T06:30:10.037Z,95.81
2022-12-11T06:31:10.091Z,96.02
2022-12-11T06:32:09.995Z,95.92
2022-12-11T06:33:09.992Z,95.70
2022-12-11T06:34:09.974Z,95.60
2022-12-11T06:35:10.283Z,95.50
2022-12-11T06:36:09.956Z,95.43
2022-12-11T06:37:09.945Z,95.33
2022-12-11T06:38:09.952Z,95.33
2022-12-11T06:39:09.925Z,95.23
2022-12-11T06:40:09.924Z,95.23
2022-12-11T06:41:09.924Z,95.12
2022-12-11T06:42:09.894Z,95.12
2022-12-11T06:43:09.894Z,95.23
2022-12-11T06:44:09.884Z,95.33
2022-12-11T06:45:10.396Z,95.33
2022-12-11T06:46:10.019Z,95.43
2022-12-11T06:47:09.844Z,95.33
2022-12-11T06:48:09.844Z,95.54
2022-12-11T06:49:09.815Z,95.54
2022-12-11T06:50:10.091Z,95.54
2022-12-11T06:51:09.815Z,95.43
2022-12-11T06:52:13.658Z,95.23
2022-12-11T06:53:10.795Z,95.12
2022-12-11T06:54:09.805Z,95.12
2022-12-11T06:55:10.140Z,95.01
2022-12-11T06:56:09.754Z,95.01
2022-12-11T06:57:09.744Z,94.91
2022-12-11T06:58:09.761Z,95.12
2022-12-11T06:59:09.736Z,95.12
2022-12-11T07:00:09.715Z,95.17
2022-12-11T07:01:09.736Z,95.27
2022-12-11T07:02:09.740Z,95.27
2022-12-11T07:03:09.746Z,95.37
2022-12-11T07:04:09.685Z,95.27
2022-12-11T07:05:10.020Z,95.27
2022-12-11T07:06:09.654Z,95.27
2022-12-11T07:07:09.651Z,95.27
2022-12-11T07:08:09.699Z,95.17
2022-12-11T07:09:09.626Z,95.17
2022-12-11T07:10:09.606Z,95.17
2022-12-11T07:11:09.704Z,95.48
2022-12-11T07:12:09.584Z,95.79
2022-12-11T07:13:09.574Z,95.90
2022-12-11T07:14:09.565Z,96.00
2022-12-11T07:15:09.979Z,96.11
2022-12-11T07:16:09.604Z,96.21
2022-12-11T07:17:09.535Z,96.17
2022-12-11T07:18:09.526Z,96.17
2022-12-11T07:19:09.529Z,96.06
2022-12-11T07:20:09.539Z,95.96
2022-12-11T07:21:09.494Z,95.96
2022-12-11T07:22:09.502Z,95.96
2022-12-11T07:23:09.540Z,95.86
2022-12-11T07:24:09.456Z,95.75
2022-12-11T07:25:09.847Z,95.75
2022-12-11T07:26:09.455Z,95.64
2022-12-11T07:27:09.443Z,95.60
2022-12-11T07:28:15.143Z,95.50
2022-12-11T07:29:10.425Z,95.39
2022-12-11T07:30:09.785Z,95.29
2022-12-11T07:31:09.393Z,95.18
2022-12-11T07:32:09.497Z,95.07
2022-12-11T07:33:09.375Z,94.97
2022-12-11T07:34:09.398Z,94.97
2022-12-11T07:35:09.902Z,94.87
2022-12-11T07:36:09.345Z,94.87
2022-12-11T07:37:09.335Z,94.72
2022-12-11T07:38:09.346Z,94.72
2022-12-11T07:39:09.305Z,94.62
2022-12-11T07:40:09.297Z,94.51
2022-12-11T07:41:09.302Z,94.40
2022-12-11T07:42:09.288Z,94.30
2022-12-11T07:43:09.279Z,94.30
2022-12-11T07:44:09.298Z,94.20
2022-12-11T07:45:09.476Z,94.09
2022-12-11T07:46:09.322Z,93.99
2022-12-11T07:47:09.235Z,93.99
2022-12-11T07:48:09.224Z,93.88
2022-12-11T07:49:09.205Z,93.67
2022-12-11T07:50:09.883Z,93.57
2022-12-11T07:51:09.196Z,93.32
2022-12-11T07:52:10.215Z,93.11
2022-12-11T07:53:09.185Z,93.11
2022-12-11T07:54:10.181Z,93.11
2022-12-11T07:55:09.679Z,93.01
2022-12-11T07:56:10.164Z,93.11
2022-12-11T07:57:13.852Z,93.11
2022-12-11T07:58:11.117Z,93.11
2022-12-11T07:59:09.105Z,93.01
2022-12-11T08:00:09.180Z,92.90
2022-12-11T08:01:09.155Z,92.69
2022-12-11T08:02:09.884Z,92.58
2022-12-11T08:03:09.064Z,92.58
2022-12-11T08:04:09.094Z,92.58
2022-12-11T08:05:09.265Z,92.69
2022-12-11T08:06:09.096Z,92.65
2022-12-11T08:07:09.035Z,92.65
2022-12-11T08:08:09.056Z,92.54
2022-12-11T08:09:09.025Z,92.33
2022-12-11T08:10:09.008Z,92.44
2022-12-11T08:11:09.007Z,92.54
2022-12-11T08:12:08.964Z,92.54
2022-12-11T08:13:08.956Z,92.50
2022-12-11T08:14:08.955Z,92.29
2022-12-11T08:15:09.210Z,92.29
2022-12-11T08:16:08.935Z,92.29
2022-12-11T08:17:08.927Z,92.29
2022-12-11T08:18:08.906Z,92.19
2022-12-11T08:19:09.091Z,92.08
2022-12-11T08:20:08.884Z,91.98
2022-12-11T08:21:08.884Z,91.98
2022-12-11T08:22:08.866Z,92.08
2022-12-11T08:23:08.882Z,92.19
2022-12-11T08:24:08.852Z,92.08
2022-12-11T08:25:09.069Z,91.87
2022-12-11T08:26:08.827Z,91.77
2022-12-11T08:27:08.812Z,91.87
2022-12-11T08:28:08.805Z,91.98
2022-12-11T08:29:08.794Z,92.04
2022-12-11T08:30:08.799Z,91.72
2022-12-11T08:31:08.839Z,91.66
2022-12-11T08:32:12.237Z,91.66
2022-12-11T08:33:08.746Z,91.66
2022-12-11T08:34:08.746Z,91.87
2022-12-11T08:35:08.903Z,91.98
2022-12-11T08:36:08.725Z,92.19
2022-12-11T08:37:08.722Z,92.29
2022-12-11T08:38:08.715Z,92.40
2022-12-11T08:39:08.695Z,92.60
2022-12-11T08:40:08.687Z,92.82
2022-12-11T08:41:08.694Z,92.88
2022-12-11T08:42:08.668Z,92.88
2022-12-11T08:43:08.647Z,92.98
2022-12-11T08:44:12.954Z,92.56
2022-12-11T08:45:10.116Z,92.35
2022-12-11T08:46:08.665Z,92.35
2022-12-11T08:47:08.617Z,92.35
2022-12-11T08:48:08.597Z,92.56
2022-12-11T08:49:08.645Z,92.50
2022-12-11T08:50:08.577Z,92.29
2022-12-11T08:51:08.566Z,92.29
2022-12-11T08:52:08.557Z,92.46
2022-12-11T08:53:08.556Z,92.46
2022-12-11T08:54:08.813Z,92.46
2022-12-11T08:55:08.804Z,92.66
2022-12-11T08:56:08.515Z,92.88
2022-12-11T08:57:08.510Z,92.98
2022-12-11T08:58:08.509Z,92.98
2022-12-11T08:59:08.667Z,93.19
2022-12-11T09:00:08.467Z,93.25
2022-12-11T09:01:08.545Z,93.46
2022-12-11T09:02:08.498Z,93.67
2022-12-11T09:03:12.604Z,93.57
2022-12-11T09:04:08.450Z,93.57
2022-12-11T09:05:09.519Z,93.67
2022-12-11T09:06:08.426Z,93.31
2022-12-11T09:07:09.116Z,93.00
2022-12-11T09:08:08.505Z,92.47
2022-12-11T09:09:09.095Z,92.16
2022-12-11T09:10:08.377Z,91.85
2022-12-11T09:11:09.088Z,91.33
2022-12-11T09:12:08.347Z,91.33
2022-12-11T09:13:08.366Z,91.33
2022-12-11T09:14:08.469Z,90.91
2022-12-11T09:15:08.491Z,90.97
2022-12-11T09:16:08.344Z,90.97
2022-12-11T09:17:08.300Z,91.08
2022-12-11T09:18:08.631Z,91.39
2022-12-11T09:19:08.539Z,91.50
2022-12-11T09:20:08.645Z,90.97
2022-12-11T09:21:08.267Z,90.31
2022-12-11T09:22:08.235Z,90.10
2022-12-11T09:23:08.238Z,90.00
2022-12-11T09:24:08.227Z,89.58
2022-12-11T09:25:08.276Z,89.68
2022-12-11T09:26:08.214Z,90.00
2022-12-11T09:27:08.213Z,90.41
2022-12-11T09:28:08.179Z,90.47
2022-12-11T09:29:08.199Z,90.58
2022-12-11T09:30:08.166Z,90.47
2022-12-11T09:31:08.196Z,90.33
2022-12-11T09:32:08.134Z,90.33
2022-12-11T09:33:08.306Z,90.33
2022-12-11T09:34:08.139Z,89.91
2022-12-11T09:35:08.297Z,89.66
2022-12-11T09:36:08.106Z,89.66
2022-12-11T09:37:08.110Z,89.56
2022-12-11T09:38:08.087Z,89.56
2022-12-11T09:39:08.077Z,89.04
2022-12-11T09:40:08.214Z,88.27
2022-12-11T09:41:08.074Z,87.48
2022-12-11T09:42:08.307Z,87.58
2022-12-11T09:43:08.044Z,87.75
2022-12-11T09:44:08.026Z,87.96
2022-12-11T09:45:08.171Z,88.17
2022-12-11T09:46:08.025Z,88.37
2022-12-11T09:47:08.338Z,88.17
2022-12-11T09:48:07.973Z,88.23
2022-12-11T09:49:07.967Z,88.02
2022-12-11T09:50:07.957Z,88.02
2022-12-11T09:51:07.949Z,87.50
2022-12-11T09:52:07.958Z,87.19
2022-12-11T09:53:07.930Z,86.98
2022-12-11T09:54:07.917Z,87.08
2022-12-11T09:55:08.163Z,87.19
2022-12-11T09:56:07.887Z,86.57
2022-12-11T09:57:07.909Z,86.67
2022-12-11T09:58:07.879Z,86.98
2022-12-11T09:59:08.147Z,87.19
2022-12-11T10:00:07.922Z,87.40
2022-12-11T10:01:07.896Z,87.50
2022-12-11T10:02:07.827Z,87.29
2022-12-11T10:03:07.819Z,87.40
2022-12-11T10:04:07.797Z,87.08
2022-12-11T10:05:07.829Z,87.08
2022-12-11T10:06:07.798Z,86.77
2022-12-11T10:07:07.787Z,87.08
2022-12-11T10:08:07.793Z,86.88
2022-12-11T10:09:07.758Z,86.25
2022-12-11T10:10:07.738Z,86.15
2022-12-11T10:11:07.768Z,86.25
2022-12-11T10:12:07.744Z,86.00
2022-12-11T10:13:07.717Z,86.21
2022-12-11T10:14:07.828Z,86.00
2022-12-11T10:15:07.790Z,86.11
2022-12-11T10:16:07.753Z,86.32
2022-12-11T10:17:07.675Z,85.59
2022-12-11T10:18:07.670Z,85.59
2022-12-11T10:19:07.667Z,85.49
2022-12-11T10:20:07.657Z,85.38
2022-12-11T10:21:07.653Z,85.17
2022-12-11T10:22:07.628Z,85.38
2022-12-11T10:23:08.214Z,85.80
2022-12-11T10:24:07.598Z,86.11
2022-12-11T10:25:11.143Z,85.80
2022-12-11T10:26:07.599Z,86.00
2022-12-11T10:27:07.609Z,86.11
2022-12-11T10:28:07.559Z,86.21
2022-12-11T10:29:07.669Z,86.11
2022-12-11T10:30:07.557Z,86.00
2022-12-11T10:31:07.562Z,86.32
2022-12-11T10:32:07.539Z,85.90
2022-12-11T10:33:07.526Z,85.65
2022-12-11T10:34:07.508Z,86.17
2022-12-11T10:35:07.490Z,85.75
2022-12-11T10:36:07.489Z,85.44
2022-12-11T10:37:07.497Z,85.55
2022-12-11T10:38:07.459Z,85.75
2022-12-11T10:39:07.469Z,85.65
2022-12-11T10:40:07.429Z,85.44
2022-12-11T10:41:07.440Z,85.13
2022-12-11T10:42:07.426Z,84.92
2022-12-11T10:43:07.699Z,85.03
2022-12-11T10:44:07.392Z,85.03
2022-12-11T10:45:07.388Z,84.92
2022-12-11T10:46:07.490Z,84.92
2022-12-11T10:47:07.378Z,85.20
2022-12-11T10:48:07.379Z,84.47
2022-12-11T10:49:07.358Z,84.47
2022-12-11T10:50:07.331Z,84.68
2022-12-11T10:51:07.319Z,84.37
2022-12-11T10:52:07.327Z,84.27
2022-12-11T10:53:07.320Z,84.68
2022-12-11T10:54:07.624Z,85.10
2022-12-11T10:55:07.299Z,84.78
2022-12-11T10:56:07.279Z,84.64
2022-12-11T10:57:07.268Z,84.74
2022-12-11T10:58:07.240Z,84.33
2022-12-11T10:59:07.250Z,84.22
2022-12-11T11:00:07.513Z,84.53
2022-12-11T11:01:07.240Z,84.12
2022-12-11T11:02:07.259Z,83.60
2022-12-11T11:03:07.238Z,83.50
2022-12-11T11:04:07.205Z,83.81
2022-12-11T11:05:07.199Z,83.91
2022-12-11T11:06:07.170Z,83.81
2022-12-11T11:07:07.170Z,83.60
2022-12-11T11:08:07.462Z,83.39
2022-12-11T11:09:07.191Z,83.60
2022-12-11T11:10:07.400Z,83.04
2022-12-11T11:11:07.121Z,81.32
2022-12-11T11:12:08.254Z,81.11
2022-12-11T11:13:07.110Z,81.42
2022-12-11T11:14:07.087Z,81.84
2022-12-11T11:15:07.080Z,82.15
2022-12-11T11:16:07.145Z,82.46
2022-12-11T11:17:07.051Z,83.29
2022-12-11T11:18:07.040Z,83.70
2022-12-11T11:19:07.060Z,83.91
2022-12-11T11:20:07.016Z,83.60
2022-12-11T11:21:07.010Z,83.18
2022-12-11T11:22:07.012Z,83.18
2022-12-11T11:23:06.981Z,83.50
2022-12-11T11:24:06.971Z,83.91
2022-12-11T11:25:06.980Z,83.60
2022-12-11T11:26:06.950Z,83.29
2022-12-11T11:27:14.388Z,83.29
2022-12-11T11:28:07.948Z,83.39
2022-12-11T11:29:07.440Z,83.25
2022-12-11T11:30:06.933Z,83.25
2022-12-11T11:31:06.988Z,83.36
2022-12-11T11:32:07.122Z,82.63
2022-12-11T11:33:06.893Z,82.21
2022-12-11T11:34:06.861Z,82.01
2022-12-11T11:35:06.901Z,81.59
2022-12-11T11:36:06.843Z,81.28
2022-12-11T11:37:06.832Z,81.70
2022-12-11T11:38:06.831Z,81.38
2022-12-11T11:39:06.811Z,81.80
2022-12-11T11:40:06.821Z,82.11
2022-12-11T11:41:13.132Z,82.21
2022-12-11T11:43:18.864Z,82.90
2022-12-11T11:44:18.820Z,82.80
2022-12-11T11:45:18.847Z,81.87
2022-12-11T11:46:18.859Z,80.83
2022-12-11T11:47:18.809Z,80.73
2022-12-11T11:48:18.804Z,80.73
2022-12-11T11:49:18.800Z,81.35
2022-12-11T11:50:18.792Z,81.45
2022-12-11T11:51:18.781Z,81.87
2022-12-11T11:52:18.760Z,81.87
2022-12-11T11:53:18.742Z,82.18
2022-12-11T11:54:18.730Z,81.35
2022-12-11T11:55:22.479Z,80.73
2022-12-11T11:56:18.725Z,81.24
2022-12-11T11:57:18.711Z,81.56
2022-12-11T11:58:18.701Z,81.62
2022-12-11T11:59:18.680Z,80.99
2022-12-11T12:00:18.671Z,80.31
2022-12-11T12:01:18.681Z,80.31
2022-12-11T12:02:18.738Z,80.10
2022-12-11T12:03:18.641Z,80.41
2022-12-11T12:04:18.651Z,80.73
2022-12-11T12:05:18.633Z,80.93
2022-12-11T12:06:18.614Z,81.04
2022-12-11T12:07:18.622Z,81.24
2022-12-11T12:08:18.750Z,81.56
2022-12-11T12:09:18.627Z,80.73
2022-12-11T12:10:18.580Z,80.83
2022-12-11T12:11:18.561Z,80.62
2022-12-11T12:12:25.539Z,80.10
2022-12-11T12:13:48.201Z,79.58
2022-12-11T12:14:50.679Z,79.58
2022-12-11T12:15:19.511Z,79.93
2022-12-11T12:16:50.968Z,80.04
2022-12-11T12:17:19.613Z,80.76
2022-12-11T12:18:18.481Z,81.38
2022-12-11T12:19:18.483Z,81.80
2022-12-11T12:20:18.491Z,82.42
2022-12-11T12:21:18.463Z,81.90
2022-12-11T12:22:18.443Z,81.76
2022-12-11T12:23:18.444Z,81.76
2022-12-11T12:24:18.423Z,81.87
2022-12-11T12:25:18.424Z,81.97
2022-12-11T12:26:18.413Z,81.87
2022-12-11T12:27:50.546Z,81.97
2022-12-11T12:28:19.412Z,81.35
2022-12-11T12:29:18.382Z,81.24
2022-12-11T12:30:22.373Z,81.56
2022-12-11T12:31:18.388Z,81.80
2022-12-11T12:32:18.362Z,81.70
2022-12-11T12:33:18.333Z,81.80
2022-12-11T12:34:18.308Z,81.18
2022-12-11T12:35:18.314Z,80.62
2022-12-11T12:36:18.293Z,81.14
2022-12-11T12:37:18.393Z,80.45
2022-12-11T12:38:18.283Z,80.45
2022-12-11T12:39:18.265Z,80.45
2022-12-11T12:40:18.260Z,80.24
2022-12-11T12:41:18.245Z,80.55
2022-12-11T12:42:18.222Z,81.18
2022-12-11T12:43:18.232Z,81.66
2022-12-11T12:44:18.343Z,81.56
2022-12-11T12:45:18.216Z,81.24
2022-12-11T12:46:18.368Z,81.14
2022-12-11T12:47:18.185Z,81.24
2022-12-11T12:48:18.173Z,80.83
2022-12-11T12:49:18.153Z,80.31
2022-12-11T12:50:18.139Z,80.62
2022-12-11T12:51:18.132Z,80.62
2022-12-11T12:52:18.126Z,80.52
2022-12-11T12:53:18.127Z,80.58